createdAt,value
2019-02-22T00:02:44.141Z,48.13
2019-02-22T00:05:13.990Z,46.00
2019-02-22T00:07:43.767Z,48.02
2019-02-22T00:10:13.564Z,46.70
2019-02-22T00:12:43.333Z,51.75
2019-02-22T00:15:13.148Z,53.23
2019-02-22T00:17:43.052Z,46.33
2019-02-22T00:20:12.963Z,51.60
2019-02-22T00:22:42.950Z,52.48
2019-02-22T00:25:12.834Z,45.33
2019-02-22T00:27:42.735Z,52.05
2019-02-22T00:30:12.816Z,52.93
2019-02-22T00:32:45.675Z,55.13
2019-02-22T00:35:15.635Z,44.18
2019-02-22T00:37:45.552Z,52.23
2019-02-22T00:43:04.859Z,47.75
2019-02-22T00:45:34.749Z,51.70
2019-02-22T00:48:04.986Z,51.42
2019-02-22T00:50:34.933Z,51.77
2019-02-22T00:53:04.811Z,47.25
2019-02-22T00:55:34.623Z,49.15
2019-02-22T00:58:04.512Z,49.33
2019-02-22T01:00:34.380Z,51.88
2019-02-22T01:03:04.304Z,52.40
2019-02-22T01:05:34.103Z,48.70
2019-02-22T01:08:03.910Z,44.65
2019-02-22T01:10:33.730Z,45.52
2019-02-22T01:13:03.583Z,46.68
2019-02-22T01:15:33.388Z,47.55
2019-02-22T01:18:03.287Z,49.83
2019-02-22T01:20:33.163Z,53.70
2019-02-22T01:23:03.105Z,51.00
2019-02-22T01:25:33.036Z,58.10
2019-02-22T01:28:02.825Z,47.48
2019-02-22T01:30:32.784Z,52.25
2019-02-22T01:33:02.718Z,52.73
2019-02-22T01:35:32.568Z,50.60
2019-02-22T01:38:02.481Z,54.77
2019-02-22T01:40:43.259Z,56.33
2019-02-22T01:43:03.914Z,55.73
2019-02-22T01:45:33.640Z,57.13
2019-02-22T01:48:04.509Z,47.80
2019-02-22T01:50:34.216Z,56.37
2019-02-22T01:53:04.076Z,50.43
2019-02-22T01:55:33.827Z,55.83
2019-02-22T01:58:03.764Z,59.25
2019-02-22T02:00:33.818Z,56.25
2019-02-22T02:03:03.721Z,60.38
2019-02-22T02:05:33.602Z,55.00
2019-02-22T02:08:03.535Z,56.63
2019-02-22T02:10:33.508Z,60.40
2019-02-22T02:13:03.458Z,52.88
2019-02-22T02:15:33.276Z,58.13
2019-02-22T02:18:03.215Z,57.70
2019-02-22T02:20:33.069Z,57.33
2019-02-22T02:23:03.056Z,56.30
2019-02-22T02:25:32.945Z,54.35
2019-02-22T02:28:03.877Z,50.75
2019-02-22T02:30:33.775Z,58.98
2019-02-22T02:33:03.662Z,62.35
2019-02-22T02:35:33.552Z,57.73
2019-02-22T02:38:03.451Z,56.37
2019-02-22T02:40:33.390Z,46.95
2019-02-22T02:45:38.419Z,54.18
2019-02-22T02:48:08.350Z,62.20
2019-02-22T02:50:38.303Z,55.98
2019-02-22T02:53:08.245Z,54.50
2019-02-22T02:55:47.183Z,61.90
2019-02-22T02:58:17.028Z,57.45
2019-02-22T03:00:46.759Z,60.48
2019-02-22T03:03:17.592Z,62.15
2019-02-22T03:05:54.020Z,57.45
2019-02-22T03:08:25.745Z,55.28
2019-02-22T03:10:55.563Z,52.23
2019-02-22T03:13:25.362Z,51.77
2019-02-22T03:15:55.244Z,47.17
2019-02-22T03:18:25.081Z,50.80
2019-02-22T03:20:54.828Z,48.58
2019-02-22T03:23:24.658Z,48.33
2019-02-22T03:25:54.450Z,49.13
2019-02-22T03:28:24.319Z,45.58
2019-02-22T03:30:54.157Z,48.33
2019-02-22T03:33:23.998Z,44.70
2019-02-22T03:35:54.051Z,47.40
2019-02-22T03:38:24.000Z,48.28
2019-02-22T03:40:53.872Z,48.80
2019-02-22T03:43:23.726Z,47.50
2019-02-22T03:45:53.539Z,46.98
2019-02-22T03:48:23.365Z,47.43
2019-02-22T03:50:53.170Z,49.97
2019-02-22T03:53:26.619Z,47.75
2019-02-22T03:55:58.119Z,47.50
2019-02-22T03:58:27.968Z,49.27
2019-02-22T04:00:57.830Z,43.85
2019-02-22T04:03:27.678Z,45.40
2019-02-22T04:05:57.591Z,43.60
2019-02-22T04:08:27.432Z,43.20
2019-02-22T04:10:57.354Z,40.38
2019-02-22T04:13:27.247Z,44.53
2019-02-22T04:15:57.050Z,46.50
2019-02-22T04:18:26.855Z,42.17
2019-02-22T04:20:56.838Z,39.18
2019-02-22T04:23:26.671Z,38.65
2019-02-22T04:25:56.439Z,40.73
2019-02-22T04:28:26.319Z,38.60
2019-02-22T04:30:56.152Z,40.73
2019-02-22T04:33:26.038Z,37.73
2019-02-22T04:35:55.990Z,35.35
2019-02-22T04:38:25.855Z,36.33
2019-02-22T04:40:55.828Z,35.73
2019-02-22T04:43:25.788Z,35.20
2019-02-22T04:45:55.548Z,33.38
2019-02-22T04:48:25.358Z,33.70
2019-02-22T04:50:55.141Z,34.33
2019-02-22T04:53:24.985Z,32.45
2019-02-22T04:55:54.885Z,32.45
2019-02-22T04:58:24.869Z,33.70
2019-02-22T05:00:54.784Z,36.55
2019-02-22T05:03:24.680Z,30.10
2019-02-22T05:05:54.613Z,33.40
2019-02-22T05:08:24.447Z,31.42
2019-02-22T05:10:54.313Z,32.40
2019-02-22T05:13:24.256Z,34.98
2019-02-22T05:15:54.155Z,32.78
2019-02-22T05:18:24.029Z,33.13
2019-02-22T05:20:53.849Z,30.52
2019-02-22T05:23:23.751Z,33.45
2019-02-22T05:25:53.653Z,34.85
2019-02-22T05:28:23.571Z,38.17
2019-02-22T05:30:53.386Z,39.92
2019-02-22T05:33:23.343Z,37.65
2019-02-22T05:35:53.191Z,35.33
2019-02-22T05:38:23.064Z,37.17
2019-02-22T05:40:52.848Z,35.60
2019-02-22T05:43:22.747Z,30.68
2019-02-22T05:45:52.562Z,29.05
2019-02-22T05:48:25.102Z,32.40
2019-02-22T05:50:53.979Z,32.07
2019-02-22T05:53:23.867Z,28.52
2019-02-22T05:55:53.664Z,26.33
2019-02-22T05:58:23.544Z,29.00
2019-02-22T06:00:53.475Z,28.52
2019-02-22T06:03:23.360Z,28.23
2019-02-22T06:05:53.101Z,29.12
2019-02-22T06:08:23.076Z,28.93
2019-02-22T06:10:52.865Z,30.12
2019-02-22T06:13:22.815Z,29.65
2019-02-22T06:15:52.838Z,29.73
2019-02-22T06:18:23.257Z,31.70
2019-02-22T06:20:55.728Z,32.30
2019-02-22T06:23:26.435Z,27.42
2019-02-22T06:25:56.372Z,29.70
2019-02-22T06:28:27.236Z,25.30
2019-02-22T06:30:57.084Z,27.58
2019-02-22T06:33:26.973Z,25.80
2019-02-22T06:35:56.892Z,25.48
2019-02-22T06:38:26.855Z,26.35
2019-02-22T06:40:56.800Z,27.33
2019-02-22T06:43:26.531Z,27.42
2019-02-22T06:45:56.449Z,28.15
2019-02-22T06:48:26.251Z,29.45
2019-02-22T06:50:56.166Z,28.33
2019-02-22T06:53:25.877Z,27.75
2019-02-22T06:55:55.774Z,25.88
2019-02-22T06:58:25.554Z,28.42
2019-02-22T07:00:55.516Z,28.60
2019-02-22T07:03:25.278Z,28.30
2019-02-22T07:05:55.218Z,30.37
2019-02-22T07:08:25.458Z,25.68
2019-02-22T07:11:04.640Z,25.12
2019-02-22T07:13:34.335Z,32.40
2019-02-22T07:16:04.196Z,29.13
2019-02-22T07:18:33.972Z,26.33
2019-02-22T07:21:03.835Z,29.85
2019-02-22T07:23:33.635Z,25.90
2019-02-22T07:26:03.441Z,28.92
2019-02-22T07:28:33.336Z,29.07
2019-02-22T07:31:03.280Z,26.42
2019-02-22T07:33:32.967Z,28.73
2019-02-22T07:36:02.835Z,24.30
2019-02-22T07:38:32.662Z,26.33
2019-02-22T07:41:02.603Z,25.08
2019-02-22T07:43:32.473Z,26.23
2019-02-22T07:46:02.268Z,24.47
2019-02-22T07:48:32.068Z,28.07
2019-02-22T07:51:01.906Z,24.27
2019-02-22T07:53:31.706Z,25.70
2019-02-22T07:56:01.433Z,20.62
2019-02-22T07:58:31.160Z,20.55
2019-02-22T08:01:00.971Z,21.97
2019-02-22T08:03:31.004Z,24.92
2019-02-22T08:06:00.970Z,22.20
2019-02-22T08:08:30.666Z,22.15
2019-02-22T08:11:00.504Z,21.52
2019-02-22T08:13:31.263Z,18.00
2019-02-22T08:16:01.055Z,20.20
2019-02-22T08:18:31.123Z,18.27
2019-02-22T08:21:00.940Z,19.17
2019-02-22T08:23:30.714Z,17.27
2019-02-22T08:26:00.507Z,17.07
2019-02-22T08:28:30.472Z,17.55
2019-02-22T08:31:01.176Z,16.30
2019-02-22T08:33:30.924Z,16.10
2019-02-22T08:36:01.699Z,18.90
2019-02-22T08:38:31.588Z,17.57
2019-02-22T08:41:01.367Z,16.95
2019-02-22T08:43:32.171Z,17.10
2019-02-22T08:46:01.970Z,15.60
2019-02-22T08:48:31.657Z,17.25
2019-02-22T08:51:01.374Z,15.55
2019-02-22T08:53:31.247Z,16.80
2019-02-22T08:56:01.095Z,18.03
2019-02-22T08:58:30.842Z,16.90
2019-02-22T09:01:01.048Z,16.52
2019-02-22T09:03:30.918Z,14.63
2019-02-22T09:06:00.703Z,15.13
2019-02-22T09:08:31.493Z,14.28
2019-02-22T09:11:01.360Z,13.68
2019-02-22T09:13:42.800Z,11.73
2019-02-22T09:16:02.539Z,11.18
2019-02-22T09:18:33.118Z,12.95
2019-02-22T09:21:02.902Z,12.78
2019-02-22T09:23:32.690Z,12.45
2019-02-22T09:26:02.563Z,11.35
2019-02-22T09:28:32.268Z,10.35
2019-02-22T09:31:02.132Z,12.07
2019-02-22T09:33:31.963Z,13.63
2019-02-22T09:36:02.094Z,9.10
2019-02-22T09:38:32.055Z,9.75
2019-02-22T09:41:01.993Z,9.08
2019-02-22T09:43:31.850Z,10.40
2019-02-22T09:46:01.576Z,10.35
2019-02-22T09:48:31.525Z,9.53
2019-02-22T09:51:01.299Z,6.53
2019-02-22T09:53:32.238Z,7.60
2019-02-22T09:56:01.996Z,7.47
2019-02-22T09:58:31.851Z,6.07
2019-02-22T10:01:01.791Z,6.30
2019-02-22T10:03:32.903Z,6.83
2019-02-22T10:06:02.692Z,7.22
2019-02-22T10:08:32.827Z,6.37
2019-02-22T10:11:04.579Z,10.45
2019-02-22T10:13:34.367Z,6.92
2019-02-22T10:16:04.211Z,7.22
2019-02-22T10:18:33.931Z,7.70
2019-02-22T10:21:03.742Z,6.00
2019-02-22T10:23:33.545Z,7.00
2019-02-22T10:26:03.411Z,8.60
2019-02-22T10:28:33.306Z,5.37
2019-02-22T10:31:03.125Z,6.03
2019-02-22T10:33:36.714Z,6.33
2019-02-22T10:36:05.567Z,5.65
2019-02-22T10:38:36.075Z,6.58
2019-02-22T10:41:05.923Z,5.53
2019-02-22T10:43:35.647Z,9.60
2019-02-22T10:46:05.403Z,8.83
2019-02-22T10:48:35.098Z,8.45
2019-02-22T10:51:04.990Z,6.58
2019-02-22T10:53:34.755Z,7.40
2019-02-22T10:56:04.600Z,7.45
2019-02-22T10:58:34.358Z,7.12
2019-02-22T11:01:04.194Z,6.42
2019-02-22T11:03:34.071Z,7.10
2019-02-22T11:06:03.908Z,6.62
2019-02-22T11:08:34.605Z,5.83
2019-02-22T11:11:04.371Z,6.12
2019-02-22T11:13:34.300Z,8.28
2019-02-22T11:16:04.162Z,6.25
2019-02-22T11:18:33.923Z,5.90
2019-02-22T11:21:03.762Z,9.03
2019-02-22T11:23:33.523Z,7.58
2019-02-22T11:26:03.456Z,7.05
2019-02-22T11:28:33.166Z,9.98
2019-02-22T11:31:02.988Z,8.23
2019-02-22T11:33:32.739Z,7.70
2019-02-22T11:36:02.550Z,8.40
2019-02-22T11:38:32.384Z,7.78
2019-02-22T11:41:02.213Z,8.65
2019-02-22T11:43:32.003Z,20.45
2019-02-22T11:46:01.723Z,14.33
2019-02-22T11:48:31.426Z,28.65
2019-02-22T11:51:01.401Z,13.45
2019-02-22T11:53:32.332Z,10.72
2019-02-22T11:56:02.223Z,10.82
2019-02-22T11:58:32.039Z,11.30
2019-02-22T12:01:01.924Z,12.20
2019-02-22T12:03:31.786Z,9.03
2019-02-22T12:06:01.530Z,9.73
2019-02-22T12:08:32.371Z,9.58
2019-02-22T12:11:02.155Z,8.18
2019-02-22T12:13:32.442Z,10.00
2019-02-22T12:16:02.417Z,7.60
2019-02-22T12:18:32.220Z,7.60
2019-02-22T12:21:02.095Z,10.78
2019-02-22T12:23:31.782Z,15.58
2019-02-22T12:26:01.615Z,9.75
2019-02-22T12:28:31.294Z,8.28
2019-02-22T12:31:01.185Z,7.87
2019-02-22T12:33:31.010Z,7.28
2019-02-22T12:36:01.044Z,11.93
2019-02-22T12:38:30.886Z,8.85
2019-02-22T12:41:00.771Z,10.00
2019-02-22T12:43:31.610Z,11.12
2019-02-22T12:46:01.347Z,9.23
2019-02-22T12:48:35.586Z,10.10
2019-02-22T12:51:05.440Z,9.00
2019-02-22T12:53:35.212Z,9.68
2019-02-22T12:56:05.093Z,13.80
2019-02-22T12:58:34.844Z,13.48
2019-02-22T13:01:05.897Z,9.98
2019-02-22T13:03:35.712Z,8.18
2019-02-22T13:06:05.671Z,14.60
2019-02-22T13:08:35.388Z,14.13
2019-02-22T13:11:05.183Z,10.98
2019-02-22T13:13:34.892Z,10.32
2019-02-22T13:16:04.758Z,9.40
2019-02-22T13:18:34.431Z,11.33
2019-02-22T13:21:04.216Z,8.83
2019-02-22T13:23:33.972Z,10.93
2019-02-22T13:26:03.686Z,12.68
2019-02-22T13:28:33.427Z,9.28
2019-02-22T13:31:03.214Z,8.47
2019-02-22T13:33:33.094Z,13.22
2019-02-22T13:36:02.959Z,12.40
2019-02-22T13:38:32.713Z,10.38
2019-02-22T13:41:02.467Z,12.68
2019-02-22T13:43:32.255Z,16.42
2019-02-22T13:46:01.943Z,14.75
2019-02-22T13:48:31.840Z,10.98
2019-02-22T13:51:01.704Z,12.50
2019-02-22T13:53:31.463Z,12.18
2019-02-22T13:56:01.170Z,12.95
2019-02-22T13:58:31.363Z,14.53
2019-02-22T14:01:01.169Z,11.20
2019-02-22T14:03:31.273Z,11.20
2019-02-22T14:06:02.808Z,10.50
2019-02-22T14:08:32.502Z,8.20
2019-02-22T14:11:02.263Z,9.58
2019-02-22T14:13:32.030Z,8.88
2019-02-22T14:16:02.024Z,8.50
2019-02-22T14:18:31.725Z,11.65
2019-02-22T14:21:01.629Z,10.50
2019-02-22T14:23:31.429Z,11.40
2019-02-22T14:26:01.216Z,11.43
2019-02-22T14:28:31.062Z,8.58
2019-02-22T14:31:00.864Z,9.30
2019-02-22T14:33:30.662Z,8.78
2019-02-22T14:36:00.468Z,10.30
2019-02-22T14:38:30.265Z,8.30
2019-02-22T14:41:00.107Z,9.75
2019-02-22T14:43:30.002Z,12.00
2019-02-22T14:45:59.944Z,12.43
2019-02-22T14:48:29.769Z,11.25
2019-02-22T14:50:59.468Z,14.53
2019-02-22T14:53:29.347Z,11.83
2019-02-22T14:55:59.836Z,12.20
2019-02-22T14:58:29.735Z,12.98
2019-02-22T15:00:59.407Z,11.85
2019-02-22T15:03:29.275Z,10.23
2019-02-22T15:05:59.859Z,11.45
2019-02-22T15:08:29.721Z,9.38
2019-02-22T15:10:59.486Z,10.32
2019-02-22T15:13:29.241Z,11.60
2019-02-22T15:16:26.883Z,12.68
2019-02-22T15:18:56.760Z,12.73
2019-02-22T15:21:26.708Z,10.13
2019-02-22T15:23:56.510Z,10.53
2019-02-22T15:26:26.369Z,10.45
2019-02-22T15:28:56.142Z,11.38
2019-02-22T15:31:35.803Z,12.95
2019-02-22T15:33:57.473Z,12.23
2019-02-22T15:36:27.231Z,12.10
2019-02-22T15:38:56.955Z,13.08
2019-02-22T15:41:26.824Z,12.07
2019-02-22T15:43:56.745Z,11.97
2019-02-22T15:46:26.667Z,12.35
2019-02-22T15:48:56.446Z,11.10
2019-02-22T15:51:26.271Z,13.40
2019-02-22T15:53:56.012Z,11.47
2019-02-22T15:56:25.855Z,12.25
2019-02-22T15:58:55.631Z,12.23
2019-02-22T16:01:25.516Z,11.88
2019-02-22T16:04:17.516Z,11.85
2019-02-22T16:06:47.392Z,12.58
2019-02-22T16:09:17.219Z,10.90
2019-02-22T16:11:47.216Z,10.93
2019-02-22T16:14:17.011Z,13.45
2019-02-22T16:16:46.969Z,11.63
2019-02-22T16:19:16.831Z,13.43
2019-02-22T16:21:46.568Z,11.75
2019-02-22T16:24:16.347Z,14.13
2019-02-22T16:26:46.116Z,11.12
2019-02-22T16:29:15.960Z,12.30
2019-02-22T16:31:45.828Z,13.08
2019-02-22T16:34:15.757Z,15.50
2019-02-22T16:36:45.502Z,13.85
2019-02-22T16:39:15.328Z,13.18
2019-02-22T16:41:45.253Z,12.98
2019-02-22T16:44:14.954Z,16.55
2019-02-22T16:46:45.820Z,13.08
2019-02-22T16:49:15.594Z,13.30
2019-02-22T16:51:45.367Z,13.30
2019-02-22T16:54:15.208Z,11.97
2019-02-22T16:56:45.006Z,14.05
2019-02-22T16:59:15.297Z,12.55
2019-02-22T17:01:46.363Z,15.88
2019-02-22T17:04:18.708Z,12.85
2019-02-22T17:06:48.940Z,14.78
2019-02-22T17:09:18.716Z,14.53
2019-02-22T17:11:48.694Z,14.40
2019-02-22T17:14:18.493Z,16.70
2019-02-22T17:16:48.364Z,14.28
2019-02-22T17:19:18.141Z,17.05
2019-02-22T17:21:48.091Z,16.20
2019-02-22T17:24:17.938Z,16.27
2019-02-22T17:26:48.022Z,15.32
2019-02-22T17:29:18.003Z,18.90
2019-02-22T17:31:48.791Z,18.90
2019-02-22T17:34:18.616Z,18.85
2019-02-22T17:36:48.580Z,27.10
2019-02-22T17:39:18.362Z,18.40
2019-02-22T17:41:48.235Z,28.70
2019-02-22T17:44:18.062Z,25.00
2019-02-22T17:46:57.259Z,20.90
2019-02-22T17:49:19.415Z,19.87
2019-02-22T17:51:49.111Z,18.90
2019-02-22T17:54:18.868Z,19.90
2019-02-22T17:56:48.645Z,20.35
2019-02-22T17:59:18.547Z,23.80
2019-02-22T18:01:48.513Z,27.70
2019-02-22T18:04:18.435Z,31.27
2019-02-22T18:06:48.317Z,23.65
2019-02-22T18:09:18.035Z,40.03
2019-02-22T18:11:47.823Z,39.95
2019-02-22T18:14:17.633Z,26.37
2019-02-22T18:16:47.463Z,33.42
2019-02-22T18:19:18.642Z,25.90
2019-02-22T18:21:48.480Z,21.48
2019-02-22T18:24:18.363Z,27.53
2019-02-22T18:26:48.157Z,35.03
2019-02-22T18:29:17.976Z,28.10
2019-02-22T18:31:47.823Z,21.93
2019-02-22T18:34:17.577Z,20.00
2019-02-22T18:36:47.440Z,18.20
2019-02-22T18:39:17.391Z,17.92
2019-02-22T18:41:47.187Z,27.10
2019-02-22T18:44:18.160Z,23.30
2019-02-22T18:46:48.037Z,20.55
2019-02-22T18:49:17.898Z,21.62
2019-02-22T18:51:47.677Z,19.67
2019-02-22T18:54:17.474Z,20.32
2019-02-22T18:56:47.268Z,20.48
2019-02-22T18:59:17.095Z,18.50
2019-02-22T19:01:47.040Z,17.73
2019-02-22T19:04:16.971Z,20.55
2019-02-22T19:06:46.879Z,18.75
2019-02-22T19:09:16.696Z,20.32
2019-02-22T19:11:46.643Z,19.47
2019-02-22T19:14:16.584Z,20.88
2019-02-22T19:16:46.390Z,51.85
2019-02-22T19:19:16.311Z,39.17
2019-02-22T19:21:46.076Z,40.38
2019-02-22T19:24:15.920Z,60.48
2019-02-22T19:26:45.660Z,31.27
2019-02-22T19:29:15.482Z,30.90
2019-02-22T19:31:45.191Z,29.98
2019-02-22T19:34:14.980Z,24.90
2019-02-22T19:36:44.918Z,27.20
2019-02-22T19:39:14.791Z,20.35
2019-02-22T19:41:44.594Z,26.52
2019-02-22T19:44:14.433Z,21.10
2019-02-22T19:46:44.217Z,22.77
2019-02-22T19:49:14.035Z,26.40
2019-02-22T19:51:43.982Z,28.97
2019-02-22T19:54:13.835Z,26.57
2019-02-22T19:56:43.728Z,22.37
2019-02-22T19:59:14.581Z,71.65
2019-02-22T20:01:44.516Z,64.37
2019-02-22T20:04:14.264Z,31.75
2019-02-22T20:06:44.154Z,34.25
2019-02-22T20:09:14.027Z,40.60
2019-02-22T20:11:43.914Z,34.92
2019-02-22T20:14:13.687Z,35.95
2019-02-22T20:16:43.424Z,28.15
2019-02-22T20:19:13.314Z,21.30
2019-02-22T20:21:43.107Z,18.48
2019-02-22T20:24:12.813Z,56.37
2019-02-22T20:26:42.733Z,43.25
2019-02-22T20:29:12.700Z,150.95
2019-02-22T20:31:42.439Z,105.92
2019-02-22T20:34:12.206Z,40.92
2019-02-22T20:36:44.166Z,32.67
2019-02-22T20:39:14.214Z,27.60
2019-02-22T20:41:44.222Z,50.33
2019-02-22T20:44:14.066Z,38.05
2019-02-22T20:46:43.937Z,41.00
2019-02-22T20:49:13.742Z,26.73
2019-02-22T20:51:43.678Z,20.68
2019-02-22T20:54:13.602Z,18.80
2019-02-22T20:56:43.526Z,17.95
2019-02-22T20:59:13.404Z,20.25
2019-02-22T21:01:43.351Z,19.20
2019-02-22T21:04:13.147Z,19.25
2019-02-22T21:06:42.967Z,17.37
2019-02-22T21:09:12.770Z,16.50
2019-02-22T21:11:42.575Z,17.00
2019-02-22T21:14:12.383Z,19.40
2019-02-22T21:16:42.282Z,23.45
2019-02-22T21:19:13.189Z,16.75
2019-02-22T21:21:43.055Z,18.37
2019-02-22T21:24:12.935Z,16.50
2019-02-22T21:26:42.755Z,17.10
2019-02-22T21:29:12.557Z,16.70
2019-02-22T21:31:42.443Z,16.27
2019-02-22T21:34:12.336Z,17.50
2019-02-22T21:36:42.239Z,14.45
2019-02-22T21:39:12.236Z,13.43
2019-02-22T21:41:42.150Z,13.70
2019-02-22T21:44:12.115Z,13.85
2019-02-22T21:46:41.991Z,14.60
2019-02-22T21:49:11.974Z,16.30
2019-02-22T21:51:41.859Z,14.68
2019-02-22T21:54:11.791Z,15.58
2019-02-22T21:56:41.623Z,14.13
2019-02-22T21:59:11.558Z,12.25
2019-02-22T22:01:41.255Z,13.30
2019-02-22T22:04:11.085Z,14.10
2019-02-22T22:06:40.914Z,16.17
2019-02-22T22:09:10.687Z,13.83
2019-02-22T22:11:40.643Z,13.98
2019-02-22T22:14:10.524Z,14.28
2019-02-22T22:16:40.484Z,13.88
2019-02-22T22:19:10.377Z,14.03
2019-02-22T22:21:40.134Z,14.70
2019-02-22T22:24:09.888Z,13.25
2019-02-22T22:26:39.683Z,13.10
2019-02-22T22:29:09.583Z,13.98
2019-02-22T22:31:39.376Z,13.28
2019-02-22T22:34:09.229Z,14.45
2019-02-22T22:36:39.058Z,14.58
2019-02-22T22:39:09.137Z,14.05
2019-02-22T22:41:38.992Z,14.03
2019-02-22T22:44:08.807Z,15.08
2019-02-22T22:46:39.321Z,13.78
2019-02-22T22:49:09.151Z,13.18
2019-02-22T22:51:38.895Z,13.90
2019-02-22T22:54:08.735Z,16.02
2019-02-22T22:56:38.662Z,14.95
2019-02-22T22:59:08.436Z,14.85
2019-02-22T23:01:38.623Z,12.93
2019-02-22T23:04:08.623Z,14.35
2019-02-22T23:06:38.525Z,14.50
2019-02-22T23:09:16.811Z,13.15
2019-02-22T23:11:46.715Z,14.13
2019-02-22T23:14:18.225Z,15.03
2019-02-22T23:16:48.214Z,16.77
2019-02-22T23:19:18.182Z,16.02
2019-02-22T23:21:48.963Z,15.97
2019-02-22T23:24:19.849Z,15.32
2019-02-22T23:26:49.623Z,16.02
2019-02-22T23:29:19.440Z,13.88
2019-02-22T23:31:50.272Z,15.43
2019-02-22T23:34:20.160Z,14.10
2019-02-22T23:36:51.208Z,15.25
2019-02-22T23:39:21.066Z,16.93
2019-02-22T23:41:51.436Z,14.45
2019-02-22T23:44:21.140Z,15.35
2019-02-22T23:46:51.229Z,17.27
2019-02-22T23:49:21.068Z,16.57
2019-02-22T23:51:50.886Z,15.90
2019-02-22T23:54:20.740Z,13.70
2019-02-22T23:56:50.555Z,15.60
2019-02-22T23:59:20.251Z,17.32
